sensor_id;sensor_type;location;lat;lon;timestamp;temperature;humidity
26954;DHT22;14508;50.924;11.600;2023-08-20T00:00:25;23.20;99.90
26954;DHT22;14508;50.924;11.600;2023-08-20T00:02:58;23.20;99.90
26954;DHT22;14508;50.924;11.600;2023-08-20T00:05:27;23.20;99.90
26954;DHT22;14508;50.924;11.600;2023-08-20T00:07:55;23.20;99.90
26954;DHT22;14508;50.924;11.600;2023-08-20T00:10:23;23.30;99.90
26954;DHT22;14508;50.924;11.600;2023-08-20T00:12:51;23.30;99.90
26954;DHT22;14508;50.924;11.600;2023-08-20T00:15:21;23.20;99.90
26954;DHT22;14508;50.924;11.600;2023-08-20T00:17:54;23.30;99.90
26954;DHT22;14508;50.924;11.600;2023-08-20T00:20:23;23.30;99.90
26954;DHT22;14508;50.924;11.600;2023-08-20T00:22:51;23.30;99.90
26954;DHT22;14508;50.924;11.600;2023-08-20T00:25:19;23.30;99.90
26954;DHT22;14508;50.924;11.600;2023-08-20T00:27:48;23.30;99.90
26954;DHT22;14508;50.924;11.600;2023-08-20T00:30:16;23.30;99.90
26954;DHT22;14508;50.924;11.600;2023-08-20T00:32:46;23.30;99.90
26954;DHT22;14508;50.924;11.600;2023-08-20T00:35:14;23.30;99.90
26954;DHT22;14508;50.924;11.600;2023-08-20T00:37:42;23.30;99.90
26954;DHT22;14508;50.924;11.600;2023-08-20T00:40:11;23.30;99.90
26954;DHT22;14508;50.924;11.600;2023-08-20T00:42:39;23.30;99.90
26954;DHT22;14508;50.924;11.600;2023-08-20T00:45:08;23.30;99.90
26954;DHT22;14508;50.924;11.600;2023-08-20T00:47:37;23.30;99.90
26954;DHT22;14508;50.924;11.600;2023-08-20T00:50:08;23.30;99.90
26954;DHT22;14508;50.924;11.600;2023-08-20T00:52:37;23.30;99.90
26954;DHT22;14508;50.924;11.600;2023-08-20T00:55:08;23.20;99.90
26954;DHT22;14508;50.924;11.600;2023-08-20T00:57:36;23.20;99.90
26954;DHT22;14508;50.924;11.600;2023-08-20T01:00:06;23.20;99.90
26954;DHT22;14508;50.924;11.600;2023-08-20T01:02:36;23.20;99.90
26954;DHT22;14508;50.924;11.600;2023-08-20T01:05:08;23.20;99.90
26954;DHT22;14508;50.924;11.600;2023-08-20T01:07:45;23.20;99.90
26954;DHT22;14508;50.924;11.600;2023-08-20T01:10:19;23.20;99.90
26954;DHT22;14508;50.924;11.600;2023-08-20T01:12:50;23.10;99.90
26954;DHT22;14508;50.924;11.600;2023-08-20T01:15:19;23.20;99.90
26954;DHT22;14508;50.924;11.600;2023-08-20T01:17:49;23.10;99.90
26954;DHT22;14508;50.924;11.600;2023-08-20T01:20:18;23.10;99.90
26954;DHT22;14508;50.924;11.600;2023-08-20T01:23:11;23.10;99.90
26954;DHT22;14508;50.924;11.600;2023-08-20T01:25:58;23.00;99.90
26954;DHT22;14508;50.924;11.600;2023-08-20T01:28:31;23.00;99.90
26954;DHT22;14508;50.924;11.600;2023-08-20T01:31:00;23.00;99.90
26954;DHT22;14508;50.924;11.600;2023-08-20T01:33:29;22.90;99.90
26954;DHT22;14508;50.924;11.600;2023-08-20T01:35:58;22.90;99.90
26954;DHT22;14508;50.924;11.600;2023-08-20T01:38:26;22.90;99.90
26954;DHT22;14508;50.924;11.600;2023-08-20T01:40:54;22.90;99.90
26954;DHT22;14508;50.924;11.600;2023-08-20T01:43:23;22.80;99.90
26954;DHT22;14508;50.924;11.600;2023-08-20T01:45:52;22.80;99.90
26954;DHT22;14508;50.924;11.600;2023-08-20T01:48:20;22.80;99.90
26954;DHT22;14508;50.924;11.600;2023-08-20T01:50:48;22.80;99.90
26954;DHT22;14508;50.924;11.600;2023-08-20T01:53:16;22.80;99.90
26954;DHT22;14508;50.924;11.600;2023-08-20T01:55:44;22.80;99.90
26954;DHT22;14508;50.924;11.600;2023-08-20T01:58:12;22.70;99.90
26954;DHT22;14508;50.924;11.600;2023-08-20T02:00:40;22.70;99.90
26954;DHT22;14508;50.924;11.600;2023-08-20T02:03:09;22.70;99.90
26954;DHT22;14508;50.924;11.600;2023-08-20T02:05:37;22.70;99.90
26954;DHT22;14508;50.924;11.600;2023-08-20T02:08:08;22.70;99.90
26954;DHT22;14508;50.924;11.600;2023-08-20T02:10:36;22.70;99.90
26954;DHT22;14508;50.924;11.600;2023-08-20T02:13:04;22.70;99.90
26954;DHT22;14508;50.924;11.600;2023-08-20T02:15:34;22.70;99.90
26954;DHT22;14508;50.924;11.600;2023-08-20T02:18:02;22.70;99.90
26954;DHT22;14508;50.924;11.600;2023-08-20T02:20:31;22.60;99.90
26954;DHT22;14508;50.924;11.600;2023-08-20T02:22:59;22.60;99.90
26954;DHT22;14508;50.924;11.600;2023-08-20T02:25:27;22.60;99.90
26954;DHT22;14508;50.924;11.600;2023-08-20T02:27:55;22.60;99.90
26954;DHT22;14508;50.924;11.600;2023-08-20T02:30:23;22.60;99.90
26954;DHT22;14508;50.924;11.600;2023-08-20T02:32:51;22.60;99.90
26954;DHT22;14508;50.924;11.600;2023-08-20T02:35:19;22.60;99.90
26954;DHT22;14508;50.924;11.600;2023-08-20T02:37:51;22.60;99.90
26954;DHT22;14508;50.924;11.600;2023-08-20T02:40:19;22.60;99.90
26954;DHT22;14508;50.924;11.600;2023-08-20T02:42:47;22.60;99.90
26954;DHT22;14508;50.924;11.600;2023-08-20T02:45:15;22.60;99.90
26954;DHT22;14508;50.924;11.600;2023-08-20T02:47:43;22.60;99.90
26954;DHT22;14508;50.924;11.600;2023-08-20T02:50:11;22.50;99.90
26954;DHT22;14508;50.924;11.600;2023-08-20T02:52:39;22.50;99.90
26954;DHT22;14508;50.924;11.600;2023-08-20T02:55:09;22.50;99.90
26954;DHT22;14508;50.924;11.600;2023-08-20T02:57:37;22.50;99.90
26954;DHT22;14508;50.924;11.600;2023-08-20T03:00:06;22.50;99.90
26954;DHT22;14508;50.924;11.600;2023-08-20T03:02:38;22.50;99.90
26954;DHT22;14508;50.924;11.600;2023-08-20T03:05:07;22.50;99.90
26954;DHT22;14508;50.924;11.600;2023-08-20T03:07:35;22.50;99.90
26954;DHT22;14508;50.924;11.600;2023-08-20T03:10:04;22.50;99.90
26954;DHT22;14508;50.924;11.600;2023-08-20T03:12:34;22.50;99.90
26954;DHT22;14508;50.924;11.600;2023-08-20T03:15:02;22.40;99.90
26954;DHT22;14508;50.924;11.600;2023-08-20T03:17:30;22.40;99.90
26954;DHT22;14508;50.924;11.600;2023-08-20T03:20:00;22.40;99.90
26954;DHT22;14508;50.924;11.600;2023-08-20T03:22:29;22.40;99.90
26954;DHT22;14508;50.924;11.600;2023-08-20T03:24:57;22.40;99.90
26954;DHT22;14508;50.924;11.600;2023-08-20T03:27:25;22.40;99.90
26954;DHT22;14508;50.924;11.600;2023-08-20T03:29:55;22.30;99.90
26954;DHT22;14508;50.924;11.600;2023-08-20T03:32:23;22.40;99.90
26954;DHT22;14508;50.924;11.600;2023-08-20T03:34:51;22.30;99.90
26954;DHT22;14508;50.924;11.600;2023-08-20T03:37:21;22.30;99.90
26954;DHT22;14508;50.924;11.600;2023-08-20T03:39:49;22.30;99.90
26954;DHT22;14508;50.924;11.600;2023-08-20T03:42:17;22.20;99.90
26954;DHT22;14508;50.924;11.600;2023-08-20T03:44:45;22.20;99.90
26954;DHT22;14508;50.924;11.600;2023-08-20T03:47:14;22.20;99.90
26954;DHT22;14508;50.924;11.600;2023-08-20T03:49:42;22.10;99.90
26954;DHT22;14508;50.924;11.600;2023-08-20T03:52:10;22.10;99.90
26954;DHT22;14508;50.924;11.600;2023-08-20T03:54:38;22.10;99.90
26954;DHT22;14508;50.924;11.600;2023-08-20T03:57:06;22.00;99.90
26954;DHT22;14508;50.924;11.600;2023-08-20T03:59:34;22.00;99.90
26954;DHT22;14508;50.924;11.600;2023-08-20T04:02:02;22.00;99.90
26954;DHT22;14508;50.924;11.600;2023-08-20T04:04:31;21.90;99.90
26954;DHT22;14508;50.924;11.600;2023-08-20T04:06:59;21.90;99.90
26954;DHT22;14508;50.924;11.600;2023-08-20T04:09:27;21.90;99.90
26954;DHT22;14508;50.924;11.600;2023-08-20T04:11:55;21.90;99.90
26954;DHT22;14508;50.924;11.600;2023-08-20T04:14:23;21.80;99.90
26954;DHT22;14508;50.924;11.600;2023-08-20T04:16:52;21.80;99.90
26954;DHT22;14508;50.924;11.600;2023-08-20T04:19:20;21.80;99.90
26954;DHT22;14508;50.924;11.600;2023-08-20T04:21:49;21.70;99.90
26954;DHT22;14508;50.924;11.600;2023-08-20T04:24:18;21.70;99.90
26954;DHT22;14508;50.924;11.600;2023-08-20T04:26:46;21.70;99.90
26954;DHT22;14508;50.924;11.600;2023-08-20T04:29:19;21.70;99.90
26954;DHT22;14508;50.924;11.600;2023-08-20T04:31:47;21.70;99.90
26954;DHT22;14508;50.924;11.600;2023-08-20T04:34:16;21.70;99.90
26954;DHT22;14508;50.924;11.600;2023-08-20T04:36:49;21.70;99.90
26954;DHT22;14508;50.924;11.600;2023-08-20T04:39:18;21.70;99.90
26954;DHT22;14508;50.924;11.600;2023-08-20T04:41:49;21.70;99.90
26954;DHT22;14508;50.924;11.600;2023-08-20T04:44:19;21.70;99.90
26954;DHT22;14508;50.924;11.600;2023-08-20T04:46:48;21.70;99.90
26954;DHT22;14508;50.924;11.600;2023-08-20T04:49:17;21.80;99.90
26954;DHT22;14508;50.924;11.600;2023-08-20T04:51:45;21.70;99.90
26954;DHT22;14508;50.924;11.600;2023-08-20T04:54:15;21.80;99.90
26954;DHT22;14508;50.924;11.600;2023-08-20T04:56:43;21.80;99.90
26954;DHT22;14508;50.924;11.600;2023-08-20T04:59:11;21.80;99.90
26954;DHT22;14508;50.924;11.600;2023-08-20T05:01:59;21.80;99.90
26954;DHT22;14508;50.924;11.600;2023-08-20T05:04:39;21.80;99.90
26954;DHT22;14508;50.924;11.600;2023-08-20T05:07:07;21.80;99.90
26954;DHT22;14508;50.924;11.600;2023-08-20T05:09:37;21.90;99.90
26954;DHT22;14508;50.924;11.600;2023-08-20T05:12:07;21.90;99.90
26954;DHT22;14508;50.924;11.600;2023-08-20T05:14:36;21.90;99.90
26954;DHT22;14508;50.924;11.600;2023-08-20T05:17:04;21.90;99.90
26954;DHT22;14508;50.924;11.600;2023-08-20T05:19:32;21.90;99.90
26954;DHT22;14508;50.924;11.600;2023-08-20T05:22:00;22.00;99.90
26954;DHT22;14508;50.924;11.600;2023-08-20T05:24:32;22.00;99.90
26954;DHT22;14508;50.924;11.600;2023-08-20T05:27:08;22.00;99.90
26954;DHT22;14508;50.924;11.600;2023-08-20T05:29:37;22.10;99.90
26954;DHT22;14508;50.924;11.600;2023-08-20T05:32:06;22.10;99.90
26954;DHT22;14508;50.924;11.600;2023-08-20T05:34:35;22.20;99.90
26954;DHT22;14508;50.924;11.600;2023-08-20T05:37:03;22.20;99.90
26954;DHT22;14508;50.924;11.600;2023-08-20T05:39:36;22.30;99.90
26954;DHT22;14508;50.924;11.600;2023-08-20T05:42:06;22.50;99.90
26954;DHT22;14508;50.924;11.600;2023-08-20T05:44:36;22.50;99.90
26954;DHT22;14508;50.924;11.600;2023-08-20T05:47:05;22.60;99.90
26954;DHT22;14508;50.924;11.600;2023-08-20T05:49:33;22.60;99.90
26954;DHT22;14508;50.924;11.600;2023-08-20T05:52:01;22.70;99.90
26954;DHT22;14508;50.924;11.600;2023-08-20T05:54:30;22.70;99.90
26954;DHT22;14508;50.924;11.600;2023-08-20T05:56:58;22.70;99.90
26954;DHT22;14508;50.924;11.600;2023-08-20T05:59:30;22.70;99.90
26954;DHT22;14508;50.924;11.600;2023-08-20T06:02:00;22.70;99.90
26954;DHT22;14508;50.924;11.600;2023-08-20T06:04:29;22.60;99.90
26954;DHT22;14508;50.924;11.600;2023-08-20T06:06:57;22.60;99.90
26954;DHT22;14508;50.924;11.600;2023-08-20T06:09:25;22.70;99.90
26954;DHT22;14508;50.924;11.600;2023-08-20T06:11:52;22.70;99.90
26954;DHT22;14508;50.924;11.600;2023-08-20T06:14:20;22.80;99.90
26954;DHT22;14508;50.924;11.600;2023-08-20T06:16:50;22.80;99.90
26954;DHT22;14508;50.924;11.600;2023-08-20T06:19:18;22.90;99.90
26954;DHT22;14508;50.924;11.600;2023-08-20T06:21:46;22.90;99.90
26954;DHT22;14508;50.924;11.600;2023-08-20T06:24:14;22.90;99.90
26954;DHT22;14508;50.924;11.600;2023-08-20T06:26:42;22.90;99.90
26954;DHT22;14508;50.924;11.600;2023-08-20T06:29:10;22.90;99.90
26954;DHT22;14508;50.924;11.600;2023-08-20T06:31:38;22.80;99.90
26954;DHT22;14508;50.924;11.600;2023-08-20T06:34:08;22.80;99.90
26954;DHT22;14508;50.924;11.600;2023-08-20T06:36:36;22.80;99.90
26954;DHT22;14508;50.924;11.600;2023-08-20T06:39:04;22.80;99.90
26954;DHT22;14508;50.924;11.600;2023-08-20T06:41:32;22.90;99.90
26954;DHT22;14508;50.924;11.600;2023-08-20T06:44:00;22.90;99.90
26954;DHT22;14508;50.924;11.600;2023-08-20T06:46:28;22.90;99.90
26954;DHT22;14508;50.924;11.600;2023-08-20T06:48:56;23.00;99.90
26954;DHT22;14508;50.924;11.600;2023-08-20T06:51:25;23.00;99.90
26954;DHT22;14508;50.924;11.600;2023-08-20T06:53:55;23.10;99.90
26954;DHT22;14508;50.924;11.600;2023-08-20T06:56:23;23.10;99.90
26954;DHT22;14508;50.924;11.600;2023-08-20T06:58:51;23.20;99.90
26954;DHT22;14508;50.924;11.600;2023-08-20T07:01:19;23.20;99.90
26954;DHT22;14508;50.924;11.600;2023-08-20T07:03:47;23.20;99.90
26954;DHT22;14508;50.924;11.600;2023-08-20T07:06:15;23.20;99.90
26954;DHT22;14508;50.924;11.600;2023-08-20T07:08:46;23.30;99.90
26954;DHT22;14508;50.924;11.600;2023-08-20T07:11:14;23.30;99.90
26954;DHT22;14508;50.924;11.600;2023-08-20T07:13:42;23.20;99.90
26954;DHT22;14508;50.924;11.600;2023-08-20T07:16:11;23.20;99.90
26954;DHT22;14508;50.924;11.600;2023-08-20T07:18:39;23.30;99.90
26954;DHT22;14508;50.924;11.600;2023-08-20T07:21:07;23.20;99.90
26954;DHT22;14508;50.924;11.600;2023-08-20T07:23:35;23.20;99.90
26954;DHT22;14508;50.924;11.600;2023-08-20T07:26:09;23.20;99.90
26954;DHT22;14508;50.924;11.600;2023-08-20T07:28:37;23.20;99.90
26954;DHT22;14508;50.924;11.600;2023-08-20T07:31:23;23.10;99.90
26954;DHT22;14508;50.924;11.600;2023-08-20T07:33:52;23.00;99.90
26954;DHT22;14508;50.924;11.600;2023-08-20T07:36:22;23.00;99.90
26954;DHT22;14508;50.924;11.600;2023-08-20T07:38:51;23.00;99.90
26954;DHT22;14508;50.924;11.600;2023-08-20T07:41:21;23.00;99.90
26954;DHT22;14508;50.924;11.600;2023-08-20T07:43:49;23.00;99.90
26954;DHT22;14508;50.924;11.600;2023-08-20T07:46:17;23.00;99.90
26954;DHT22;14508;50.924;11.600;2023-08-20T07:48:45;22.90;99.90
26954;DHT22;14508;50.924;11.600;2023-08-20T07:51:13;22.90;99.90
26954;DHT22;14508;50.924;11.600;2023-08-20T07:53:41;22.90;99.90
26954;DHT22;14508;50.924;11.600;2023-08-20T07:56:09;22.90;99.90
26954;DHT22;14508;50.924;11.600;2023-08-20T07:58:38;22.90;99.90
26954;DHT22;14508;50.924;11.600;2023-08-20T08:01:06;22.90;99.90
26954;DHT22;14508;50.924;11.600;2023-08-20T08:03:34;22.90;99.90
26954;DHT22;14508;50.924;11.600;2023-08-20T08:06:03;22.90;99.90
26954;DHT22;14508;50.924;11.600;2023-08-20T08:08:31;22.90;99.90
26954;DHT22;14508;50.924;11.600;2023-08-20T08:10:59;22.90;99.90
26954;DHT22;14508;50.924;11.600;2023-08-20T08:13:27;23.00;99.90
26954;DHT22;14508;50.924;11.600;2023-08-20T08:15:56;23.00;99.90
26954;DHT22;14508;50.924;11.600;2023-08-20T08:18:24;23.00;99.90
26954;DHT22;14508;50.924;11.600;2023-08-20T08:20:52;23.00;99.90
26954;DHT22;14508;50.924;11.600;2023-08-20T08:23:20;23.00;99.90
26954;DHT22;14508;50.924;11.600;2023-08-20T08:25:48;23.00;99.90
26954;DHT22;14508;50.924;11.600;2023-08-20T08:28:15;23.00;99.90
26954;DHT22;14508;50.924;11.600;2023-08-20T08:30:43;23.10;99.90
26954;DHT22;14508;50.924;11.600;2023-08-20T08:33:13;23.10;99.90
26954;DHT22;14508;50.924;11.600;2023-08-20T08:35:41;23.20;99.90
26954;DHT22;14508;50.924;11.600;2023-08-20T08:38:09;23.10;99.90
26954;DHT22;14508;50.924;11.600;2023-08-20T08:40:37;23.20;99.90
26954;DHT22;14508;50.924;11.600;2023-08-20T08:43:07;23.30;99.90
26954;DHT22;14508;50.924;11.600;2023-08-20T08:45:41;23.30;99.90
26954;DHT22;14508;50.924;11.600;2023-08-20T08:48:10;23.30;99.90
26954;DHT22;14508;50.924;11.600;2023-08-20T08:50:39;23.40;99.90
26954;DHT22;14508;50.924;11.600;2023-08-20T08:53:08;23.50;99.90
26954;DHT22;14508;50.924;11.600;2023-08-20T08:55:36;23.60;99.90
26954;DHT22;14508;50.924;11.600;2023-08-20T08:58:06;23.70;99.90
26954;DHT22;14508;50.924;11.600;2023-08-20T09:00:34;23.80;99.90
26954;DHT22;14508;50.924;11.600;2023-08-20T09:03:03;23.90;99.90
26954;DHT22;14508;50.924;11.600;2023-08-20T09:05:31;24.00;99.90
26954;DHT22;14508;50.924;11.600;2023-08-20T09:08:00;24.10;99.90
26954;DHT22;14508;50.924;11.600;2023-08-20T09:10:28;24.10;99.90
26954;DHT22;14508;50.924;11.600;2023-08-20T09:12:56;24.10;99.90
26954;DHT22;14508;50.924;11.600;2023-08-20T09:15:33;24.10;99.90
26954;DHT22;14508;50.924;11.600;2023-08-20T09:18:02;24.10;99.90
26954;DHT22;14508;50.924;11.600;2023-08-20T09:20:35;24.20;99.90
26954;DHT22;14508;50.924;11.600;2023-08-20T09:23:07;24.30;99.90
26954;DHT22;14508;50.924;11.600;2023-08-20T09:25:38;24.40;99.90
26954;DHT22;14508;50.924;11.600;2023-08-20T09:28:06;24.40;99.90
26954;DHT22;14508;50.924;11.600;2023-08-20T09:30:34;24.40;99.90
26954;DHT22;14508;50.924;11.600;2023-08-20T09:33:03;24.50;99.90
26954;DHT22;14508;50.924;11.600;2023-08-20T09:35:32;24.50;99.90
26954;DHT22;14508;50.924;11.600;2023-08-20T09:38:00;24.50;99.90
26954;DHT22;14508;50.924;11.600;2023-08-20T09:40:30;24.40;99.90
26954;DHT22;14508;50.924;11.600;2023-08-20T09:43:00;24.50;99.90
26954;DHT22;14508;50.924;11.600;2023-08-20T09:45:29;24.60;99.90
26954;DHT22;14508;50.924;11.600;2023-08-20T09:47:58;24.60;99.90
26954;DHT22;14508;50.924;11.600;2023-08-20T09:50:29;24.60;99.90
26954;DHT22;14508;50.924;11.600;2023-08-20T09:53:06;24.60;99.90
26954;DHT22;14508;50.924;11.600;2023-08-20T09:55:42;24.70;99.90
26954;DHT22;14508;50.924;11.600;2023-08-20T09:58:11;24.80;99.90
26954;DHT22;14508;50.924;11.600;2023-08-20T10:00:40;24.80;99.90
26954;DHT22;14508;50.924;11.600;2023-08-20T10:03:08;24.90;99.90
26954;DHT22;14508;50.924;11.600;2023-08-20T10:05:37;25.00;99.90
26954;DHT22;14508;50.924;11.600;2023-08-20T10:08:07;25.20;99.90
26954;DHT22;14508;50.924;11.600;2023-08-20T10:10:35;25.20;99.90
26954;DHT22;14508;50.924;11.600;2023-08-20T10:13:04;25.30;99.90
26954;DHT22;14508;50.924;11.600;2023-08-20T10:15:32;25.30;99.90
26954;DHT22;14508;50.924;11.600;2023-08-20T10:18:07;25.40;99.90
26954;DHT22;14508;50.924;11.600;2023-08-20T10:20:38;25.30;99.90
26954;DHT22;14508;50.924;11.600;2023-08-20T10:23:06;25.30;99.90
26954;DHT22;14508;50.924;11.600;2023-08-20T10:25:40;25.30;99.90
26954;DHT22;14508;50.924;11.600;2023-08-20T10:28:19;25.40;99.90
26954;DHT22;14508;50.924;11.600;2023-08-20T10:31:04;25.50;99.90
26954;DHT22;14508;50.924;11.600;2023-08-20T10:33:34;25.70;99.90
26954;DHT22;14508;50.924;11.600;2023-08-20T10:36:10;25.90;99.90
26954;DHT22;14508;50.924;11.600;2023-08-20T10:38:38;26.10;99.90
26954;DHT22;14508;50.924;11.600;2023-08-20T10:41:06;26.20;99.90
26954;DHT22;14508;50.924;11.600;2023-08-20T10:43:37;26.30;99.90
26954;DHT22;14508;50.924;11.600;2023-08-20T10:46:07;26.50;99.90
26954;DHT22;14508;50.924;11.600;2023-08-20T10:48:38;26.70;99.90
26954;DHT22;14508;50.924;11.600;2023-08-20T10:51:10;26.80;99.90
26954;DHT22;14508;50.924;11.600;2023-08-20T10:53:40;26.90;99.90
26954;DHT22;14508;50.924;11.600;2023-08-20T10:56:15;27.00;99.90
26954;DHT22;14508;50.924;11.600;2023-08-20T10:58:46;27.10;99.90
26954;DHT22;14508;50.924;11.600;2023-08-20T11:01:20;27.10;99.90
26954;DHT22;14508;50.924;11.600;2023-08-20T11:03:49;27.10;99.90
26954;DHT22;14508;50.924;11.600;2023-08-20T11:06:18;27.10;99.90
26954;DHT22;14508;50.924;11.600;2023-08-20T11:08:46;27.20;99.90
26954;DHT22;14508;50.924;11.600;2023-08-20T11:11:15;27.10;99.90
26954;DHT22;14508;50.924;11.600;2023-08-20T11:13:46;27.10;99.90
26954;DHT22;14508;50.924;11.600;2023-08-20T11:16:14;27.00;99.90
26954;DHT22;14508;50.924;11.600;2023-08-20T11:18:42;27.00;99.90
26954;DHT22;14508;50.924;11.600;2023-08-20T11:21:11;27.00;99.90
26954;DHT22;14508;50.924;11.600;2023-08-20T11:23:39;27.00;99.90
26954;DHT22;14508;50.924;11.600;2023-08-20T11:26:09;27.00;99.90
26954;DHT22;14508;50.924;11.600;2023-08-20T11:28:37;27.10;99.90
26954;DHT22;14508;50.924;11.600;2023-08-20T11:31:07;27.10;99.90
26954;DHT22;14508;50.924;11.600;2023-08-20T11:33:35;26.90;99.90
26954;DHT22;14508;50.924;11.600;2023-08-20T11:36:04;26.90;99.90
26954;DHT22;14508;50.924;11.600;2023-08-20T11:38:34;26.90;99.90
26954;DHT22;14508;50.924;11.600;2023-08-20T11:41:02;27.00;99.90
26954;DHT22;14508;50.924;11.600;2023-08-20T11:43:30;27.00;99.90
26954;DHT22;14508;50.924;11.600;2023-08-20T11:45:58;27.10;99.90
26954;DHT22;14508;50.924;11.600;2023-08-20T11:48:28;27.20;99.90
26954;DHT22;14508;50.924;11.600;2023-08-20T11:50:57;27.30;99.90
26954;DHT22;14508;50.924;11.600;2023-08-20T11:53:28;27.40;99.90
26954;DHT22;14508;50.924;11.600;2023-08-20T11:55:56;27.40;99.90
26954;DHT22;14508;50.924;11.600;2023-08-20T11:58:24;27.50;99.90
26954;DHT22;14508;50.924;11.600;2023-08-20T12:00:52;27.60;99.90
26954;DHT22;14508;50.924;11.600;2023-08-20T12:03:20;27.80;99.90
26954;DHT22;14508;50.924;11.600;2023-08-20T12:05:50;27.90;99.90
26954;DHT22;14508;50.924;11.600;2023-08-20T12:08:18;28.00;99.90
26954;DHT22;14508;50.924;11.600;2023-08-20T12:10:46;28.00;99.90
26954;DHT22;14508;50.924;11.600;2023-08-20T12:13:14;28.00;99.90
26954;DHT22;14508;50.924;11.600;2023-08-20T12:15:42;27.90;99.90
26954;DHT22;14508;50.924;11.600;2023-08-20T12:18:10;28.00;99.90
26954;DHT22;14508;50.924;11.600;2023-08-20T12:20:38;28.00;99.90
26954;DHT22;14508;50.924;11.600;2023-08-20T12:23:07;28.00;99.90
26954;DHT22;14508;50.924;11.600;2023-08-20T12:25:36;28.00;99.90
26954;DHT22;14508;50.924;11.600;2023-08-20T12:28:05;27.90;99.90
26954;DHT22;14508;50.924;11.600;2023-08-20T12:30:34;27.90;99.90
26954;DHT22;14508;50.924;11.600;2023-08-20T12:33:05;28.00;99.90
26954;DHT22;14508;50.924;11.600;2023-08-20T12:35:34;28.00;99.90
26954;DHT22;14508;50.924;11.600;2023-08-20T12:38:02;28.10;99.90
26954;DHT22;14508;50.924;11.600;2023-08-20T12:40:32;28.10;99.90
26954;DHT22;14508;50.924;11.600;2023-08-20T12:43:00;28.10;99.90
26954;DHT22;14508;50.924;11.600;2023-08-20T12:45:28;28.00;99.90
26954;DHT22;14508;50.924;11.600;2023-08-20T12:47:56;27.90;99.90
26954;DHT22;14508;50.924;11.600;2023-08-20T12:50:28;27.90;99.90
26954;DHT22;14508;50.924;11.600;2023-08-20T12:52:56;28.00;99.90
26954;DHT22;14508;50.924;11.600;2023-08-20T12:55:24;28.00;99.90
26954;DHT22;14508;50.924;11.600;2023-08-20T12:57:54;27.90;99.90
26954;DHT22;14508;50.924;11.600;2023-08-20T13:00:23;28.00;99.90
26954;DHT22;14508;50.924;11.600;2023-08-20T13:02:53;28.00;99.90
26954;DHT22;14508;50.924;11.600;2023-08-20T13:05:22;28.00;99.90
26954;DHT22;14508;50.924;11.600;2023-08-20T13:07:51;28.10;99.90
26954;DHT22;14508;50.924;11.600;2023-08-20T13:10:20;28.20;99.90
26954;DHT22;14508;50.924;11.600;2023-08-20T13:12:51;28.20;99.90
26954;DHT22;14508;50.924;11.600;2023-08-20T13:15:23;28.30;99.90
26954;DHT22;14508;50.924;11.600;2023-08-20T13:17:53;28.30;99.90
26954;DHT22;14508;50.924;11.600;2023-08-20T13:20:21;28.30;99.90
26954;DHT22;14508;50.924;11.600;2023-08-20T13:22:52;28.50;99.90
26954;DHT22;14508;50.924;11.600;2023-08-20T13:25:20;28.50;99.90
26954;DHT22;14508;50.924;11.600;2023-08-20T13:27:49;28.50;99.90
26954;DHT22;14508;50.924;11.600;2023-08-20T13:30:17;28.60;99.90
26954;DHT22;14508;50.924;11.600;2023-08-20T13:32:47;28.60;99.90
26954;DHT22;14508;50.924;11.600;2023-08-20T13:35:15;28.60;99.90
26954;DHT22;14508;50.924;11.600;2023-08-20T13:37:43;28.70;99.90
26954;DHT22;14508;50.924;11.600;2023-08-20T13:40:12;28.70;99.40
26954;DHT22;14508;50.924;11.600;2023-08-20T13:42:40;28.70;99.30
26954;DHT22;14508;50.924;11.600;2023-08-20T13:45:08;28.80;99.30
26954;DHT22;14508;50.924;11.600;2023-08-20T13:47:37;28.80;98.90
26954;DHT22;14508;50.924;11.600;2023-08-20T13:50:07;28.80;98.50
26954;DHT22;14508;50.924;11.600;2023-08-20T13:52:36;28.80;98.40
26954;DHT22;14508;50.924;11.600;2023-08-20T13:55:06;28.80;98.40
26954;DHT22;14508;50.924;11.600;2023-08-20T13:57:34;28.80;98.00
26954;DHT22;14508;50.924;11.600;2023-08-20T14:00:03;28.90;97.40
26954;DHT22;14508;50.924;11.600;2023-08-20T14:02:36;29.00;97.00
26954;DHT22;14508;50.924;11.600;2023-08-20T14:05:07;29.00;96.70
26954;DHT22;14508;50.924;11.600;2023-08-20T14:07:35;29.10;96.60
26954;DHT22;14508;50.924;11.600;2023-08-20T14:10:03;29.20;96.40
26954;DHT22;14508;50.924;11.600;2023-08-20T14:12:32;29.20;96.00
26954;DHT22;14508;50.924;11.600;2023-08-20T14:15:01;29.30;95.70
26954;DHT22;14508;50.924;11.600;2023-08-20T14:17:29;29.20;95.20
26954;DHT22;14508;50.924;11.600;2023-08-20T14:19:58;29.30;95.20
26954;DHT22;14508;50.924;11.600;2023-08-20T14:22:27;29.30;95.40
26954;DHT22;14508;50.924;11.600;2023-08-20T14:24:55;29.30;95.10
26954;DHT22;14508;50.924;11.600;2023-08-20T14:27:23;29.20;94.70
26954;DHT22;14508;50.924;11.600;2023-08-20T14:29:51;29.10;94.70
26954;DHT22;14508;50.924;11.600;2023-08-20T14:32:19;29.20;95.20
26954;DHT22;14508;50.924;11.600;2023-08-20T14:34:47;29.10;95.40
26954;DHT22;14508;50.924;11.600;2023-08-20T14:37:15;29.10;95.30
26954;DHT22;14508;50.924;11.600;2023-08-20T14:39:44;29.10;95.50
26954;DHT22;14508;50.924;11.600;2023-08-20T14:42:12;29.20;95.60
26954;DHT22;14508;50.924;11.600;2023-08-20T14:44:40;29.30;94.80
26954;DHT22;14508;50.924;11.600;2023-08-20T14:47:08;29.30;94.30
26954;DHT22;14508;50.924;11.600;2023-08-20T14:49:35;29.30;94.30
26954;DHT22;14508;50.924;11.600;2023-08-20T14:52:03;29.40;93.60
26954;DHT22;14508;50.924;11.600;2023-08-20T14:54:47;29.30;93.00
26954;DHT22;14508;50.924;11.600;2023-08-20T14:57:15;29.30;92.90
26954;DHT22;14508;50.924;11.600;2023-08-20T14:59:44;29.30;93.10
26954;DHT22;14508;50.924;11.600;2023-08-20T15:02:12;29.30;92.90
26954;DHT22;14508;50.924;11.600;2023-08-20T15:04:40;29.40;93.20
26954;DHT22;14508;50.924;11.600;2023-08-20T15:07:08;29.50;93.20
26954;DHT22;14508;50.924;11.600;2023-08-20T15:09:36;29.60;93.40
26954;DHT22;14508;50.924;11.600;2023-08-20T15:12:06;29.60;93.60
26954;DHT22;14508;50.924;11.600;2023-08-20T15:14:34;29.60;93.20
26954;DHT22;14508;50.924;11.600;2023-08-20T15:17:02;29.60;93.30
26954;DHT22;14508;50.924;11.600;2023-08-20T15:19:30;29.60;92.80
26954;DHT22;14508;50.924;11.600;2023-08-20T15:21:58;29.60;92.10
26954;DHT22;14508;50.924;11.600;2023-08-20T15:24:26;29.60;92.50
26954;DHT22;14508;50.924;11.600;2023-08-20T15:26:54;29.50;92.40